Terminal Aerodrome Forecast
Issued by NWS

Home | Current Version | Previous Version | Text Only | Print | Product List | Glossary Off
Versions: 1 2 3 4 5 6 7 8 9 10 11 12 13 14

992
FTUS43 KGRB 011458 AAB
TAFMTW
TAF AMD
KMTW 011458Z 0115/0212 28010KT P6SM SCT012 OVC090
      TEMPO 0115/0117 BKN012
     FM011700 28011KT P6SM BKN025
     FM012300 29008KT P6SM BKN035 BKN050=

USA.gov is the U.S. government's official web portal to all federal, state and local government web resources and services.